Palopinto, Missouri
Current Conditions -  °F | °C
As of 4:15 PM on Sunday 21 Dec 2014 (Local Time) from KGLY Reporting Station
Overcast Overcast  
Wind Chill: 38°   Ceiling: 4500
Heat Index: 45°   Visibility: 9mi
Dew Point: 39°   Wind: 14mph
Humidity: 81%   Direction: 170°S
Pressure: 29.9"   Gusts: NA
Location:  38.4371°N, 93.4072°W
Report Text: KGLY 212215Z AUTO 17012KT 9SM SCT019 OVC045 07/04 A2990 RMK AO2
Loading
Personal Weather Stations






























Interactive Weather Map New forecast layout! Learn more

10-Day Weather Forecast

Advertisements
Track Severe Weather on mobile